createdAt,value
2023-03-11T00:01:12.323Z,96186.53
2023-03-11T00:03:41.200Z,96195.09
2023-03-11T00:06:09.840Z,96208.53
2023-03-11T00:08:38.387Z,96200.75
2023-03-11T00:11:07.056Z,96209.31
2023-03-11T00:13:36.894Z,96204.72
2023-03-11T00:16:08.043Z,96193.19
2023-03-11T00:18:36.655Z,96214.97
2023-03-11T00:21:05.820Z,96210.72
2023-03-11T00:23:35.624Z,96207.88
2023-03-11T00:26:04.213Z,96210.72
2023-03-11T00:28:34.389Z,96229.22
2023-03-11T00:31:04.390Z,96237.41
2023-03-11T00:33:34.288Z,96255.78
2023-03-11T00:36:02.959Z,96244.25
2023-03-11T00:38:31.552Z,96256.22
2023-03-11T00:41:01.700Z,96247.53
2023-03-11T00:43:33.106Z,96248.97
2023-03-11T00:46:01.723Z,96239.97
2023-03-11T00:48:30.271Z,96268.72
2023-03-11T00:51:00.157Z,96252.47
2023-03-11T00:53:29.007Z,96259.44
2023-03-11T00:55:57.677Z,96264.63
2023-03-11T00:58:28.214Z,96254.97
2023-03-11T01:00:58.457Z,96267.91
2023-03-11T01:03:26.970Z,96284.41
2023-03-11T01:05:55.455Z,96278.53
2023-03-11T01:08:27.732Z,96279.78
2023-03-11T01:10:56.353Z,96282.47
2023-03-11T01:13:25.219Z,96281.72
2023-03-11T01:15:54.396Z,96284.81
2023-03-11T01:18:23.367Z,96288.91
2023-03-11T01:20:52.305Z,96273.44
2023-03-11T01:23:23.278Z,96292.22
2023-03-11T01:25:53.536Z,96288.47
2023-03-11T01:28:22.068Z,96289.06
2023-03-11T01:30:50.725Z,96296.50
2023-03-11T01:33:20.964Z,96296.13
2023-03-11T01:35:50.209Z,96298.38
2023-03-11T01:38:18.760Z,96311.00
2023-03-11T01:40:50.572Z,96313.41
2023-03-11T01:43:54.566Z,96327.78
2023-03-11T01:46:29.330Z,96326.03
2023-03-11T01:49:00.281Z,96321.78
2023-03-11T01:51:36.739Z,96324.03
2023-03-11T01:54:11.602Z,96320.81
2023-03-11T01:56:44.016Z,96329.31
2023-03-11T01:59:21.090Z,96328.06
2023-03-11T02:02:00.772Z,96330.28
2023-03-11T02:04:30.532Z,96324.22
2023-03-11T02:06:59.296Z,96335.47
2023-03-11T02:09:28.132Z,96331.84
2023-03-11T02:11:58.598Z,96343.91
2023-03-11T02:14:31.230Z,96343.41
2023-03-11T02:17:01.790Z,96354.16
2023-03-11T02:19:47.977Z,96347.34
2023-03-11T02:22:17.890Z,96361.34
2023-03-11T02:24:56.926Z,96363.44
2023-03-11T02:27:29.666Z,96366.25
2023-03-11T02:30:01.673Z,96382.50
2023-03-11T02:32:33.436Z,96372.72
2023-03-11T02:35:02.088Z,96377.25
2023-03-11T02:37:30.883Z,96377.25
2023-03-11T02:40:45.793Z,96379.63
2023-03-11T02:43:20.840Z,96376.94
2023-03-11T02:45:50.998Z,96372.72
2023-03-11T02:48:21.971Z,96379.19
2023-03-11T02:50:50.578Z,96373.28
2023-03-11T02:53:20.948Z,96382.59
2023-03-11T02:55:49.464Z,96380.47
2023-03-11T02:58:19.335Z,96380.81
2023-03-11T03:00:48.208Z,96377.16
2023-03-11T03:03:16.988Z,96380.47
2023-03-11T03:05:45.964Z,96381.16
2023-03-11T03:08:14.971Z,96380.06
2023-03-11T03:10:43.902Z,96387.16
2023-03-11T03:13:12.432Z,96389.53
2023-03-11T03:15:42.474Z,96389.13
2023-03-11T03:18:11.012Z,96392.81
2023-03-11T03:20:39.667Z,96399.53
2023-03-11T03:23:08.330Z,96401.22
2023-03-11T03:25:37.160Z,96399.34
2023-03-11T03:28:09.307Z,96404.16
2023-03-11T03:30:42.659Z,96407.94
2023-03-11T03:33:12.008Z,96413.63
2023-03-11T03:35:45.453Z,96408.84
2023-03-11T03:38:36.581Z,96412.78
2023-03-11T03:41:05.873Z,96409.06
2023-03-11T03:43:36.538Z,96417.84
2023-03-11T03:46:07.672Z,96419.50
2023-03-11T03:48:41.647Z,96427.06
2023-03-11T03:51:13.920Z,96432.50
2023-03-11T03:53:48.149Z,96435.28
2023-03-11T03:56:18.797Z,96437.34
2023-03-11T03:58:47.883Z,96435.84
2023-03-11T04:01:18.010Z,96439.66
2023-03-11T04:03:46.758Z,96446.56
2023-03-11T04:06:21.083Z,96442.19
2023-03-11T04:08:56.048Z,96452.75
2023-03-11T04:11:29.286Z,96453.66
2023-03-11T04:13:58.758Z,96457.31
2023-03-11T04:16:29.307Z,96465.25
2023-03-11T04:19:04.705Z,96460.78
2023-03-11T04:21:33.803Z,96464.81
2023-03-11T04:24:03.029Z,96480.03
2023-03-11T04:26:35.935Z,96477.94
2023-03-11T04:29:05.396Z,96487.50
2023-03-11T04:31:41.360Z,96490.53
2023-03-11T04:34:11.209Z,96491.81
2023-03-11T04:36:41.205Z,96495.19
2023-03-11T04:39:10.788Z,96488.75
2023-03-11T04:41:43.722Z,96496.31
2023-03-11T04:44:17.143Z,96491.59
2023-03-11T04:46:47.740Z,96499.16
2023-03-11T04:49:17.187Z,96507.41
2023-03-11T04:51:46.194Z,96510.53
2023-03-11T04:54:16.681Z,96502.81
2023-03-11T04:56:45.422Z,96511.94
2023-03-11T04:59:14.023Z,96508.81
2023-03-11T05:01:44.480Z,96524.09
2023-03-11T05:04:15.585Z,96523.88
2023-03-11T05:06:44.833Z,96529.97
2023-03-11T05:09:15.212Z,96537.59
2023-03-11T05:11:43.881Z,96536.13
2023-03-11T05:14:13.736Z,96548.72
2023-03-11T05:16:42.279Z,96557.44
2023-03-11T05:19:25.915Z,96554.06
2023-03-11T05:21:56.146Z,96568.09
2023-03-11T05:24:27.087Z,96571.38
2023-03-11T05:26:56.401Z,96576.63
2023-03-11T05:29:26.779Z,96576.13
2023-03-11T05:31:56.300Z,96575.84
2023-03-11T05:34:25.499Z,96573.31
2023-03-11T05:36:55.518Z,96577.31
2023-03-11T05:39:24.972Z,96587.53
2023-03-11T05:41:53.719Z,96589.34
2023-03-11T05:44:22.331Z,96588.56
2023-03-11T05:46:51.716Z,96586.28
2023-03-11T05:49:21.582Z,96591.53
2023-03-11T05:51:53.426Z,96587.41
2023-03-11T05:54:23.873Z,96584.84
2023-03-11T05:56:54.098Z,96592.25
2023-03-11T05:59:23.312Z,96592.97
2023-03-11T06:01:58.040Z,96600.91
2023-03-11T06:04:26.728Z,96590.91
2023-03-11T06:06:55.739Z,96591.56
2023-03-11T06:09:28.092Z,96587.72
2023-03-11T06:11:57.150Z,96597.91
2023-03-11T06:14:31.782Z,96599.63
2023-03-11T06:17:04.146Z,96607.16
2023-03-11T06:19:33.077Z,96611.91
2023-03-11T06:22:02.096Z,96599.25
2023-03-11T06:24:32.995Z,96602.09
2023-03-11T06:27:01.972Z,96617.81
2023-03-11T06:29:31.902Z,96612.75
2023-03-11T06:32:00.869Z,96605.44
2023-03-11T06:34:29.648Z,96611.19
2023-03-11T06:36:59.500Z,96625.47
2023-03-11T06:39:28.317Z,96624.59
2023-03-11T06:41:58.675Z,96630.72
2023-03-11T06:44:28.684Z,96635.72
2023-03-11T06:46:57.281Z,96642.41
2023-03-11T06:49:26.002Z,96645.59
2023-03-11T06:51:55.116Z,96659.00
2023-03-11T06:54:24.436Z,96653.94
2023-03-11T06:56:53.347Z,96665.78
2023-03-11T06:59:23.418Z,96672.34
2023-03-11T07:01:52.217Z,96668.94
2023-03-11T07:04:20.844Z,96672.03
2023-03-11T07:06:50.465Z,96676.22
2023-03-11T07:09:25.249Z,96660.19
2023-03-11T07:11:54.204Z,96665.19
2023-03-11T07:14:30.354Z,96669.69
2023-03-11T07:16:59.567Z,96671.25
2023-03-11T07:19:33.871Z,96675.34
2023-03-11T07:22:02.671Z,96673.53
2023-03-11T07:24:31.217Z,96686.50
2023-03-11T07:26:59.843Z,96687.56
2023-03-11T07:29:29.988Z,96702.59
2023-03-11T07:31:58.706Z,96701.38
2023-03-11T07:34:27.395Z,96710.75
2023-03-11T07:36:56.031Z,96714.50
2023-03-11T07:39:24.642Z,96714.72
2023-03-11T07:41:53.360Z,96716.13
2023-03-11T07:44:22.592Z,96720.56
2023-03-11T07:46:52.650Z,96722.78
2023-03-11T07:49:21.183Z,96724.34
2023-03-11T07:51:50.101Z,96729.72
2023-03-11T07:54:18.729Z,96732.13
2023-03-11T07:56:47.269Z,96734.56
2023-03-11T07:59:15.876Z,96738.72
2023-03-11T08:01:47.340Z,96735.94
2023-03-11T08:04:18.353Z,96744.41
2023-03-11T08:06:50.663Z,96752.78
2023-03-11T08:09:19.665Z,96754.59
2023-03-11T08:11:49.761Z,96756.00
2023-03-11T08:14:18.759Z,96762.19
2023-03-11T08:16:47.541Z,96761.34
2023-03-11T08:19:17.658Z,96777.41
2023-03-11T08:21:46.798Z,96771.78
2023-03-11T08:24:16.164Z,96783.63
2023-03-11T08:26:45.027Z,96778.00
2023-03-11T08:29:13.757Z,96776.09
2023-03-11T08:31:42.519Z,96768.88
2023-03-11T08:34:13.477Z,96770.41
2023-03-11T08:36:44.689Z,96778.16
2023-03-11T08:39:13.476Z,96781.84
2023-03-11T08:41:42.330Z,96784.25
2023-03-11T08:44:11.146Z,96780.84
2023-03-11T08:46:41.412Z,96791.13
2023-03-11T08:49:10.452Z,96805.06
2023-03-11T08:51:39.184Z,96807.88
2023-03-11T08:54:09.832Z,96814.75
2023-03-11T08:56:38.669Z,96814.19
2023-03-11T08:59:08.482Z,96817.91
2023-03-11T09:01:37.155Z,96825.75
2023-03-11T09:04:06.366Z,96815.06
2023-03-11T09:06:35.703Z,96833.53
2023-03-11T09:09:05.013Z,96838.50
2023-03-11T09:11:37.417Z,96852.41
2023-03-11T09:14:06.832Z,96869.47
2023-03-11T09:16:35.712Z,96866.34
2023-03-11T09:19:07.521Z,96877.44
2023-03-11T09:21:36.512Z,96881.28
2023-03-11T09:24:06.819Z,96889.34
2023-03-11T09:26:36.772Z,96893.81
2023-03-11T09:29:05.425Z,96891.19
2023-03-11T09:31:34.125Z,96905.28
2023-03-11T09:34:02.886Z,96899.59
2023-03-11T09:36:31.788Z,96904.41
2023-03-11T09:39:01.911Z,96902.03
2023-03-11T09:41:57.125Z,96907.38
2023-03-11T09:44:38.346Z,96903.53
2023-03-11T09:47:39.833Z,96905.50
2023-03-11T09:50:22.300Z,96901.84
2023-03-11T09:53:10.166Z,96898.28
2023-03-11T09:55:45.543Z,96906.34
2023-03-11T09:58:27.625Z,96902.63
2023-03-11T10:00:57.630Z,96906.03
2023-03-11T10:03:33.402Z,96920.53
2023-03-11T10:06:15.394Z,96918.88
2023-03-11T10:08:53.915Z,96918.69
2023-03-11T10:11:53.097Z,96910.22
2023-03-11T10:15:00.489Z,96916.88
2023-03-11T10:17:54.912Z,96918.69
2023-03-11T10:20:30.838Z,96918.97
2023-03-11T10:23:14.774Z,96917.00
2023-03-11T10:25:55.915Z,96914.56
2023-03-11T10:28:33.048Z,96911.97
2023-03-11T10:31:18.896Z,96908.84
2023-03-11T10:33:53.544Z,96899.88
2023-03-11T10:36:27.419Z,96906.22
2023-03-11T10:38:57.492Z,96908.44
2023-03-11T10:41:39.026Z,96900.66
2023-03-11T10:44:15.075Z,96894.06
2023-03-11T10:46:45.460Z,96911.47
2023-03-11T10:49:18.023Z,96918.63
2023-03-11T10:51:50.936Z,96912.47
2023-03-11T10:54:28.881Z,96910.69
2023-03-11T10:57:00.711Z,96913.09
2023-03-11T10:59:34.384Z,96913.84
2023-03-11T11:02:23.496Z,96910.16
2023-03-11T11:05:08.512Z,96903.88
2023-03-11T11:07:41.145Z,96896.72
2023-03-11T11:10:21.240Z,96897.81
2023-03-11T11:12:59.136Z,96888.44
2023-03-11T11:15:31.392Z,96894.22
2023-03-11T11:18:06.073Z,96901.91
2023-03-11T11:20:36.056Z,96884.75
2023-03-11T11:23:05.450Z,96889.50
2023-03-11T11:25:38.237Z,96883.44
2023-03-11T11:28:19.489Z,96890.44
2023-03-11T11:30:58.583Z,96888.53
2023-03-11T11:33:33.440Z,96883.13
2023-03-11T11:36:05.461Z,96883.31
2023-03-11T11:38:35.030Z,96879.53
2023-03-11T11:41:06.680Z,96895.44
2023-03-11T11:43:49.764Z,96903.31
2023-03-11T11:46:30.261Z,96911.81
2023-03-11T11:49:12.800Z,96903.72
2023-03-11T11:51:49.281Z,96923.03
2023-03-11T11:54:26.267Z,96925.31
2023-03-11T11:56:57.207Z,96919.53
2023-03-11T11:59:26.520Z,96921.53
2023-03-11T12:02:08.718Z,96921.63
2023-03-11T12:04:54.668Z,96918.84
2023-03-11T12:08:00.086Z,96920.13
2023-03-11T12:10:34.827Z,96917.16
2023-03-11T12:13:55.790Z,96919.94
2023-03-11T12:16:35.590Z,96920.25
2023-03-11T12:19:16.520Z,96918.22
2023-03-11T12:22:11.484Z,96919.88
2023-03-11T12:25:02.927Z,96912.22
2023-03-11T12:27:37.968Z,96919.16
2023-03-11T12:30:15.964Z,96909.97
2023-03-11T12:32:53.088Z,96913.78
2023-03-11T12:35:27.789Z,96909.94
2023-03-11T12:38:07.921Z,96907.97
2023-03-11T12:41:01.529Z,96912.88
2023-03-11T12:44:03.137Z,96910.78
2023-03-11T12:47:18.676Z,96909.75
2023-03-11T12:49:50.038Z,96907.34
2023-03-11T12:52:29.236Z,96913.28
2023-03-11T12:55:33.204Z,96908.81
2023-03-11T12:58:49.523Z,96914.59
2023-03-11T13:01:54.702Z,96919.16
2023-03-11T13:04:41.440Z,96919.88
2023-03-11T13:07:41.015Z,96917.59
2023-03-11T13:10:38.934Z,96925.56
2023-03-11T13:13:40.567Z,96913.81
2023-03-11T13:16:39.623Z,96911.59
2023-03-11T13:19:53.001Z,96910.28
2023-03-11T13:23:16.099Z,96915.56
2023-03-11T13:26:24.115Z,96915.38
2023-03-11T13:29:41.182Z,96907.88
2023-03-11T13:33:15.419Z,96924.13
2023-03-11T13:36:05.232Z,96915.88
2023-03-11T13:39:08.664Z,96920.09
2023-03-11T13:41:43.563Z,96920.28
2023-03-11T13:44:23.450Z,96924.25
2023-03-11T13:46:59.671Z,96933.03
2023-03-11T13:49:38.760Z,96940.53
2023-03-11T13:52:16.135Z,96944.47
2023-03-11T13:54:49.848Z,96948.41
2023-03-11T13:57:39.058Z,96946.06
2023-03-11T14:00:17.825Z,96957.31
2023-03-11T14:02:51.509Z,96954.44
2023-03-11T14:05:25.324Z,96956.91
2023-03-11T14:07:55.603Z,96959.66
2023-03-11T14:10:31.060Z,96959.72
2023-03-11T14:13:17.847Z,96969.31
2023-03-11T14:15:55.213Z,96972.38
2023-03-11T14:18:37.793Z,96970.72
2023-03-11T14:21:13.797Z,96974.72
2023-03-11T14:23:46.107Z,96972.19
2023-03-11T14:26:18.680Z,96978.44
2023-03-11T14:28:52.372Z,96982.47
2023-03-11T14:31:36.475Z,96992.16
2023-03-11T14:34:15.667Z,96988.69
2023-03-11T14:36:48.548Z,96996.94
2023-03-11T14:39:32.737Z,96999.81
2023-03-11T14:42:13.745Z,96997.63
2023-03-11T14:44:48.680Z,97010.50
2023-03-11T14:47:27.039Z,97002.63
2023-03-11T14:49:57.187Z,97005.69
2023-03-11T14:52:38.298Z,97016.34
2023-03-11T14:55:15.505Z,97014.84
2023-03-11T14:57:50.539Z,97016.56
2023-03-11T15:00:25.669Z,97018.66
2023-03-11T15:03:07.373Z,97022.75
2023-03-11T15:05:46.738Z,97019.56
2023-03-11T15:08:20.683Z,97027.66
2023-03-11T15:11:24.317Z,97023.38
2023-03-11T15:13:54.365Z,97022.66
2023-03-11T15:16:31.445Z,97025.94
2023-03-11T15:19:02.969Z,97027.81
2023-03-11T15:21:31.571Z,97022.31
2023-03-11T15:24:06.407Z,97016.88
2023-03-11T15:26:38.253Z,97019.63
2023-03-11T15:29:16.895Z,97027.22
2023-03-11T15:31:47.632Z,97028.66
2023-03-11T15:34:30.845Z,97029.22
2023-03-11T15:37:19.270Z,97033.31
2023-03-11T15:39:52.400Z,97034.09
2023-03-11T15:42:25.616Z,97036.69
2023-03-11T15:45:10.076Z,97042.59
2023-03-11T15:47:40.752Z,97050.97
2023-03-11T15:50:27.327Z,97054.13
2023-03-11T15:53:00.146Z,97056.91
2023-03-11T15:55:29.352Z,97061.38
2023-03-11T15:58:08.021Z,97062.59
2023-03-11T16:00:38.274Z,97069.47
2023-03-11T16:03:08.219Z,97070.81
2023-03-11T16:05:36.828Z,97073.63
2023-03-11T16:08:05.846Z,97077.53
2023-03-11T16:10:35.093Z,97078.22
2023-03-11T16:13:03.731Z,97076.94
2023-03-11T16:15:35.891Z,97080.34
2023-03-11T16:18:08.786Z,97078.13
2023-03-11T16:20:43.937Z,97076.25
2023-03-11T16:23:19.342Z,97078.94
2023-03-11T16:25:49.042Z,97073.44
2023-03-11T16:28:18.650Z,97077.63
2023-03-11T16:30:47.681Z,97084.75
2023-03-11T16:33:17.865Z,97085.66
2023-03-11T16:35:47.095Z,97085.13
2023-03-11T16:38:17.166Z,97083.63
2023-03-11T16:40:45.665Z,97090.00
2023-03-11T16:43:15.409Z,97076.13
2023-03-11T16:45:43.886Z,97082.88
2023-03-11T16:48:12.389Z,97089.03
2023-03-11T16:50:42.294Z,97090.84
2023-03-11T16:53:11.608Z,97090.56
2023-03-11T16:55:40.094Z,97106.69
2023-03-11T16:58:08.655Z,97111.06
2023-03-11T17:00:37.710Z,97120.31
2023-03-11T17:03:07.090Z,97123.78
2023-03-11T17:05:35.793Z,97120.13
2023-03-11T17:08:06.586Z,97129.59
2023-03-11T17:10:38.777Z,97135.34
2023-03-11T17:13:07.802Z,97136.19
2023-03-11T17:15:38.259Z,97133.31
2023-03-11T17:18:07.233Z,97126.78
2023-03-11T17:20:37.191Z,97139.88
2023-03-11T17:23:07.168Z,97130.94
2023-03-11T17:25:35.823Z,97140.22
2023-03-11T17:28:04.377Z,97151.53
2023-03-11T17:30:37.205Z,97147.75
2023-03-11T17:33:06.278Z,97149.19
2023-03-11T17:35:35.084Z,97155.13
2023-03-11T17:38:03.733Z,97156.31
2023-03-11T17:40:33.735Z,97166.69
2023-03-11T17:43:02.362Z,97180.06
2023-03-11T17:45:31.165Z,97177.63
2023-03-11T17:47:59.945Z,97167.41
2023-03-11T17:50:28.703Z,97174.09
2023-03-11T17:52:57.698Z,97181.53
2023-03-11T17:55:26.395Z,97177.16
2023-03-11T17:57:56.356Z,97169.16
2023-03-11T18:00:25.638Z,97179.78
2023-03-11T18:02:54.223Z,97177.09
2023-03-11T18:05:23.354Z,97185.16
2023-03-11T18:07:52.054Z,97199.41
2023-03-11T18:10:21.491Z,97209.63
2023-03-11T18:12:50.869Z,97198.34
2023-03-11T18:15:22.626Z,97201.09
2023-03-11T18:17:51.322Z,97206.94
2023-03-11T18:20:20.410Z,97216.56
2023-03-11T18:22:49.195Z,97217.16
2023-03-11T18:25:18.023Z,97224.72
2023-03-11T18:27:46.749Z,97225.69
2023-03-11T18:30:15.712Z,97234.91
2023-03-11T18:32:45.871Z,97233.41
2023-03-11T18:35:17.409Z,97230.25
2023-03-11T18:37:46.714Z,97239.59
2023-03-11T18:40:16.095Z,97237.09
2023-03-11T18:42:44.788Z,97239.28
2023-03-11T18:45:13.947Z,97241.91
2023-03-11T18:47:42.480Z,97239.41
2023-03-11T18:50:13.518Z,97248.53
2023-03-11T18:52:42.027Z,97244.25
2023-03-11T18:55:11.278Z,97249.03
2023-03-11T18:57:43.115Z,97243.22
2023-03-11T19:00:13.378Z,97245.59
2023-03-11T19:02:41.981Z,97239.25
2023-03-11T19:05:12.620Z,97236.63
2023-03-11T19:07:41.504Z,97244.63
2023-03-11T19:10:12.315Z,97247.84
2023-03-11T19:12:42.604Z,97250.41
2023-03-11T19:15:13.370Z,97251.44
2023-03-11T19:17:42.054Z,97245.31
2023-03-11T19:20:13.544Z,97252.31
2023-03-11T19:22:42.294Z,97244.25
2023-03-11T19:25:11.377Z,97251.38
2023-03-11T19:27:40.347Z,97255.50
2023-03-11T19:30:10.956Z,97257.38
2023-03-11T19:32:39.530Z,97260.78
2023-03-11T19:35:10.899Z,97265.66
2023-03-11T19:37:41.384Z,97271.34
2023-03-11T19:40:11.906Z,97262.78
2023-03-11T19:42:40.636Z,97268.66
2023-03-11T19:45:10.288Z,97276.31
2023-03-11T19:47:39.979Z,97279.38
2023-03-11T19:50:10.215Z,97277.06
2023-03-11T19:52:40.211Z,97283.47
2023-03-11T19:55:09.774Z,97280.34
2023-03-11T19:57:38.549Z,97277.72
2023-03-11T20:00:10.447Z,97285.84
2023-03-11T20:02:39.142Z,97288.28
2023-03-11T20:05:09.823Z,97285.09
2023-03-11T20:07:38.394Z,97286.44
2023-03-11T20:10:10.146Z,97288.34
2023-03-11T20:12:40.225Z,97280.84
2023-03-11T20:15:12.505Z,97282.22
2023-03-11T20:17:41.042Z,97286.22
2023-03-11T20:20:12.232Z,97287.56
2023-03-11T20:22:41.025Z,97289.69
2023-03-11T20:25:11.429Z,97289.97
2023-03-11T20:27:40.060Z,97290.50
2023-03-11T20:30:10.814Z,97296.41
2023-03-11T20:32:39.726Z,97295.84
2023-03-11T20:35:09.506Z,97295.06
2023-03-11T20:37:38.182Z,97293.44
2023-03-11T20:40:08.711Z,97296.63
2023-03-11T20:42:39.857Z,97295.53
2023-03-11T20:45:10.236Z,97299.22
2023-03-11T20:47:38.853Z,97304.59
2023-03-11T20:50:08.988Z,97305.13
2023-03-11T20:52:37.701Z,97307.78
2023-03-11T20:55:10.050Z,97306.22
2023-03-11T20:57:41.445Z,97299.81
2023-03-11T21:00:13.335Z,97306.28
2023-03-11T21:02:44.255Z,97309.25
2023-03-11T21:05:14.508Z,97305.22
2023-03-11T21:07:43.173Z,97313.00
2023-03-11T21:10:14.112Z,97307.88
2023-03-11T21:12:44.203Z,97320.72
2023-03-11T21:15:13.864Z,97312.97
2023-03-11T21:17:42.737Z,97319.13
2023-03-11T21:20:13.492Z,97307.88
2023-03-11T21:22:42.330Z,97311.88
2023-03-11T21:25:11.332Z,97314.81
2023-03-11T21:27:40.185Z,97303.34
2023-03-11T21:30:12.878Z,97312.16
2023-03-11T21:32:41.650Z,97313.50
2023-03-11T21:35:10.851Z,97322.59
2023-03-11T21:37:39.717Z,97322.03
2023-03-11T21:40:10.752Z,97325.53
2023-03-11T21:42:39.389Z,97325.03
2023-03-11T21:45:11.338Z,97321.25
2023-03-11T21:47:40.041Z,97320.69
2023-03-11T21:50:10.445Z,97319.91
2023-03-11T21:52:39.012Z,97319.31
2023-03-11T21:55:08.362Z,97330.00
2023-03-11T21:57:36.950Z,97329.78
2023-03-11T22:00:09.809Z,97335.13
2023-03-11T22:02:39.878Z,97329.78
2023-03-11T22:05:09.651Z,97324.16
2023-03-11T22:07:38.233Z,97334.88
2023-03-11T22:10:08.559Z,97331.38
2023-03-11T22:12:37.504Z,97334.06
2023-03-11T22:15:07.998Z,97342.41
2023-03-11T22:17:37.164Z,97339.19
2023-03-11T22:20:10.069Z,97332.19
2023-03-11T22:22:39.021Z,97336.22
2023-03-11T22:25:08.819Z,97343.19
2023-03-11T22:27:38.513Z,97342.91
2023-03-11T22:30:09.719Z,97342.63
2023-03-11T22:32:38.321Z,97344.00
2023-03-11T22:35:09.232Z,97343.75
2023-03-11T22:37:37.851Z,97352.03
2023-03-11T22:40:08.862Z,97346.69
2023-03-11T22:42:38.677Z,97356.31
2023-03-11T22:45:09.150Z,97355.53
2023-03-11T22:47:37.783Z,97358.19
2023-03-11T22:50:08.824Z,97352.84
2023-03-11T22:52:37.368Z,97361.38
2023-03-11T22:55:06.910Z,97353.63
2023-03-11T22:57:38.786Z,97357.91
2023-03-11T23:00:17.371Z,97362.72
2023-03-11T23:02:46.745Z,97365.13
2023-03-11T23:05:17.309Z,97364.63
2023-03-11T23:07:46.056Z,97366.47
2023-03-11T23:10:19.015Z,97361.66
2023-03-11T23:12:49.431Z,97370.22
2023-03-11T23:15:20.173Z,97361.94
2023-03-11T23:17:48.809Z,97375.28
2023-03-11T23:20:19.294Z,97369.69
2023-03-11T23:22:47.866Z,97367.81
2023-03-11T23:25:17.675Z,97366.72
2023-03-11T23:27:47.397Z,97375.28
2023-03-11T23:30:17.953Z,97381.09
2023-03-11T23:32:46.966Z,97382.41
2023-03-11T23:35:15.580Z,97385.25
2023-03-11T23:37:49.884Z,97392.75
2023-03-11T23:40:19.262Z,97389.88
2023-03-11T23:42:47.828Z,97393.91
2023-03-11T23:45:16.361Z,97389.06
2023-03-11T23:47:44.960Z,97394.72
2023-03-11T23:50:13.765Z,97393.09
2023-03-11T23:52:42.797Z,97393.09
2023-03-11T23:55:13.863Z,97399.53
2023-03-11T23:57:42.416Z,97391.25
